Wilmington, OH

11:50 PM EDT on September 04, 2015 (GMT -0400)
Spring Valley Township | | Change Station
CLOSE
Current Station
Personal Weather Station
Location: Spring Valley, OH
Elevation: 896 ft
Nearby Weather Stations

Elev 896 ft 39.60 °N, 83.97 °W | Updated 5 seconds ago

Mostly Cloudy
Mostly Cloudy
67.4 °F
Feels Like 67.4 °F
N
2.0
Wind Variable Wind from West
Gusts 9.0 mph

Today
High -- | Low -- °F
--% Chance of Precip.
Yesterday
High -- | Low -- °F
Precip. -- in
7:06 AM 8:01 PM
Waning Gibbous, 53% visible
Pressure 30.06 in
Visibility 10.0 miles
Clouds Mostly Cloudy 12000 ft
Dew Point 66 °F
Humidity 95%
Rainfall 0.20 in
Snow Depth Not available.
UV 0.0 out of 12
Pollen 9.60 out of 12
Air Quality Not available.
Flu Activity Not available.
METAR KILN 050254Z AUTO 17006KT 10SM BKN120 21/17 A3009 RMK AO2 LTG DSNT SW SLP179 T02110167 50003
Pressure 30.06 in
Visibility 10.0 miles
Clouds Mostly Cloudy 12000 ft
Dew Point 66 °F
Humidity 95%
Rainfall 0.20 in
Snow Depth Not available.
UV 0.0 out of 12
Pollen 9.60 out of 12
Air Quality Not available.
Flu Activity Not available.
METAR KILN 050254Z AUTO 17006KT 10SM BKN120 21/17 A3009 RMK AO2 LTG DSNT SW SLP179 T02110167 50003

10-Day Weather Forecast

×

Almanac

Astronomy

Sep. 04, 2015 Rise Set
Actual Time
Civil Twilight
Nautical Twilight
Astronomical Twilight
Moon
Length of Visible Light
Length of Day
Tomorrow will be .
, % of the Moon is Illuminated

Today's Extremes

State Highs State Lows

Community

WunderPhotos

Upload Photos

1,852,408 photos uploaded!

WunderBlogs® & News

Nearby

Air Quality

  Air Quality AQ Index Pollutant
Not available.

Snow Depth

Station Depth Elevation

Earthquake Activity

City Distance Mag. Time & Date
Minimum magnitude displayed is 2.5.

Coastal Water Temperatures

Place Temperature

Stations

Nearby Weather Stations

Station Location Temp. Windchill Dew Point Humidity Wind Precip. Elev Updated Type